Flight Track Log - Related Links

Times and Time Zones

All times are in EDT time to prevent confusion due to time zone crossing. See the DAL2369 flight status page for this flight to view local times or setup timezone preferences in your user account.

Time Position Orientation Groundspeed Altitude Reporting Facility
EDT Latitude Longitude Course Direction KTS MPH feet Rate Location/Type
Sat 01:10:23 PM 33.6333 -84.4667 168° South 182 209 3,200  Level Atlanta TRACON
Sat 01:11:17 PM 33.6333 -84.5500 270° West 249 287 6,100 3,368 Climbing Atlanta TRACON
Sat 01:12:00 PM 33.4092 -84.2667 180° South  Level FlightAware Approximate
Sat 01:12:17 PM 33.6167 -84.6167 253° West 277 319 9,600  Level Atlanta TRACON
Sat 01:13:00 PM 33.3026 -84.2464 168° South  Level FlightAware Approximate
Sat 01:13:11 PM 33.5333 -84.6167 180° South 335 386 10,000  Level Atlanta TRACON
Sat 01:14:00 PM 33.1966 -84.2199 168° South  Level FlightAware Approximate
Sat 01:14:11 PM 33.4500 -84.5667 153° Southeast 353 406 13,400  Level Atlanta TRACON
Sat 01:15:00 PM 33.0906 -84.1935 168° South  Level FlightAware Approximate
Sat 01:15:17 PM 33.3500 -84.4833 145° Southeast 382 440 14,000  Level Atlanta TRACON
Sat 01:15:44 PM 33.3197 -84.4639 152° Southeast 370 426 14,200 2,276 Climbing Atlanta Center
Sat 01:16:44 PM 33.2322 -84.3864 143° Southeast 394 453 17,300 2,900 Climbing Atlanta Center
Sat 01:17:44 PM 33.1386 -84.3042 144° Southeast 410 472 20,000 2,700 Climbing Atlanta Center
Sat 01:18:44 PM 33.0406 -84.2147 143° Southeast 436 502 22,700 2,450 Climbing Atlanta Center
Sat 01:19:44 PM 32.9322 -84.1478 153° Southeast 436 502 24,900 2,350 Climbing Atlanta Center
Sat 01:20:44 PM 32.8111 -84.1006 162° South 441 507 27,400 2,450 Climbing Atlanta Center
Sat 01:21:44 PM 32.6900 -84.0486 160° South 454 522 29,800 2,600 Climbing Atlanta Center
Sat 01:22:44 PM 32.5731 -83.9994 160° South 459 528 32,600 1,600 Climbing Atlanta Center
Sat 01:23:44 PM 32.4583 -83.9503 160° South 452 520 33,000 153 Climbing Atlanta Center
Sat 01:25:21 PM 32.2631 -83.8728 161° South 457 526 33,000  Level Jacksonville Center
Sat 01:26:21 PM 32.1444 -83.8225 160° South 457 526 33,000  Level Jacksonville Center
Sat 01:27:21 PM 32.0256 -83.7747 161° South 457 526 33,000  Level Jacksonville Center
Sat 01:28:21 PM 31.9069 -83.7272 161° South 457 526 33,000  Level Jacksonville Center
Sat 01:29:21 PM 31.7883 -83.6797 161° South 452 520 33,000  Level Jacksonville Center
Sat 01:31:21 PM 31.5469 -83.5361 153° Southeast 466 536 33,000  Level Jacksonville Center
Sat 01:32:21 PM 31.4386 -83.4600 149° Southeast 461 531 33,000  Level Jacksonville Center
Sat 01:33:21 PM 31.3306 -83.3839 149° Southeast 456 525 33,000  Level Jacksonville Center
Sat 01:34:21 PM 31.2200 -83.3081 150° Southeast 461 531 33,000 -850 Level Jacksonville Center
Sat 01:35:21 PM 31.1075 -83.2297 149° Southeast 461 531 31,300 -1,500 Descending Jacksonville Center
Sat 01:36:21 PM 30.9992 -83.1519 148° Southeast 467 537 30,000 -1,300 Descending Jacksonville Center
Sat 01:37:21 PM 30.8906 -83.0814 151° Southeast 467 537 28,700 -1,150 Descending Jacksonville Center
Sat 01:38:21 PM 30.7967 -83.0136 148° Southeast 456 525 27,700 -850 Descending Jacksonville Center
Sat 01:39:21 PM 30.6800 -82.9383 151° Southeast 443 510 27,000 -350 Descending Jacksonville Center
Sat 01:40:21 PM 30.5756 -82.8683 150° Southeast 438 504 27,000  Level Jacksonville Center
Sat 01:41:21 PM 30.4836 -82.7986 147° Southeast 438 504 27,000  Level Jacksonville Center
Sat 01:42:21 PM 30.3769 -82.7264 150° Southeast 443 510 27,000  Level Jacksonville Center
Sat 01:43:21 PM 30.2747 -82.6544 149° Southeast 443 510 27,000 -50 Level Jacksonville Center
Sat 01:44:21 PM 30.1681 -82.5875 152° Southeast 443 510 26,900  Descending Jacksonville Center
Sat 01:45:21 PM 30.0614 -82.5158 150° Southeast 437 503 27,000 50 Climbing Jacksonville Center
Sat 01:46:21 PM 29.9567 -82.4467 150° Southeast 437 503 27,000  Level Jacksonville Center
Sat 01:47:21 PM 29.8397 -82.4042 163° South 437 503 27,000 -400 Level Jacksonville Center
Sat 01:48:21 PM 29.7164 -82.3544 161° South 437 503 26,200 -800 Descending Jacksonville Center
Sat 01:49:21 PM 29.6178 -82.2881 150° Southeast 418 481 25,400 -1,000 Descending Jacksonville Center
Sat 01:50:21 PM 29.5236 -82.2194 148° Southeast 407 468 24,200 -1,450 Descending Jacksonville Center
Sat 01:51:21 PM 29.4625 -82.1175 125° Southeast 387 445 22,500 -1,850 Descending Jacksonville Center
Sat 01:52:21 PM 29.4181 -82.0225 118° Southeast 382 440 20,500 -2,150 Descending Jacksonville Center
Sat 01:53:21 PM 29.3506 -81.9347 131° Southeast 376 433 18,200 -2,300 Descending Jacksonville Center
Sat 01:54:21 PM 29.2583 -81.8928 158° South 352 405 15,900 -2,450 Descending Jacksonville Center
Sat 01:55:21 PM 29.1600 -81.8369 154° Southeast 352 405 13,300 -2,350 Descending Jacksonville Center
Sat 01:56:21 PM 29.0719 -81.7975 159° South 347 399 11,200 -1,200 Descending Jacksonville Center
Sat 01:57:21 PM 28.9881 -81.7650 161° South 334 384 10,900 -450 Descending Jacksonville Center
Sat 01:58:21 PM 28.9106 -81.7303 159° South 322 371 10,300 -857 Descending Jacksonville Center
Sat 01:58:52 PM 28.8667 -81.7000 149° Southeast 296 341 9,600 -848 Descending Orlando TRACON
Sat 01:59:53 PM 28.8000 -81.6833 168° South 268 308 9,000 -298 Descending Orlando TRACON
Sat 02:00:53 PM 28.7500 -81.6333 139° Southeast 212 244 9,000 -750 Level Orlando TRACON
Sat 02:01:53 PM 28.7167 -81.5667 120° Southeast 224 258 7,500 -1,750 Descending Orlando TRACON
Sat 02:02:53 PM 28.6833 -81.5167 127° Southeast 216 249 5,500 -1,950 Descending Orlando TRACON
Sat 02:03:53 PM 28.6500 -81.4667 127° Southeast 207 238 3,600 -1,250 Descending Orlando TRACON
Sat 02:04:53 PM 28.6167 -81.4167 127° Southeast 198 228 3,000 -600 Descending Orlando TRACON

Login

Don't have an account? Register now (free) for customized features, flight alerts, and more!